createdAt,value
2023-01-17T00:00:37.047Z,0
2023-01-17T00:01:37.032Z,0
2023-01-17T00:02:37.021Z,0
2023-01-17T00:03:37.014Z,0
2023-01-17T00:04:37.000Z,0
2023-01-17T00:05:36.988Z,0
2023-01-17T00:06:36.977Z,0
2023-01-17T00:07:36.977Z,0
2023-01-17T00:08:36.955Z,0
2023-01-17T00:09:36.946Z,0
2023-01-17T00:10:36.937Z,0
2023-01-17T00:11:36.927Z,0
2023-01-17T00:12:36.915Z,0
2023-01-17T00:13:36.912Z,0
2023-01-17T00:14:36.898Z,0
2023-01-17T00:15:36.880Z,0
2023-01-17T00:16:36.879Z,0
2023-01-17T00:17:36.864Z,0
2023-01-17T00:18:36.866Z,0
2023-01-17T00:19:36.866Z,0
2023-01-17T00:20:36.832Z,0
2023-01-17T00:21:36.819Z,0
2023-01-17T00:22:36.807Z,0
2023-01-17T00:23:36.797Z,0
2023-01-17T00:24:36.788Z,0
2023-01-17T00:25:36.792Z,0
2023-01-17T00:26:36.762Z,0
2023-01-17T00:27:36.759Z,0
2023-01-17T00:28:36.744Z,0
2023-01-17T00:29:36.735Z,0
2023-01-17T00:30:36.733Z,0
2023-01-17T00:31:36.726Z,0
2023-01-17T00:32:36.708Z,0
2023-01-17T00:33:36.700Z,0
2023-01-17T00:34:36.691Z,0
2023-01-17T00:35:36.670Z,0
2023-01-17T00:36:36.659Z,0
2023-01-17T00:37:36.666Z,0
2023-01-17T00:38:36.640Z,0
2023-01-17T00:39:36.625Z,0
2023-01-17T00:40:36.617Z,0
2023-01-17T00:41:36.607Z,0
2023-01-17T00:42:36.595Z,0
2023-01-17T00:43:36.584Z,0
2023-01-17T00:44:36.578Z,0
2023-01-17T00:45:36.563Z,0
2023-01-17T00:46:36.551Z,0
2023-01-17T00:47:36.539Z,0
2023-01-17T00:48:36.533Z,0
2023-01-17T00:49:36.551Z,0
2023-01-17T00:50:36.508Z,0
2023-01-17T00:51:36.499Z,0
2023-01-17T00:52:36.491Z,0
2023-01-17T00:53:36.477Z,0
2023-01-17T00:54:36.469Z,0
2023-01-17T00:55:36.463Z,0
2023-01-17T00:56:36.445Z,0
2023-01-17T00:57:36.437Z,0
2023-01-17T00:58:36.426Z,0
2023-01-17T00:59:36.416Z,0
2023-01-17T01:00:36.407Z,0
2023-01-17T01:01:36.404Z,0
2023-01-17T01:02:36.382Z,0
2023-01-17T01:03:36.371Z,0
2023-01-17T01:04:36.363Z,0
2023-01-17T01:05:36.351Z,0
2023-01-17T01:06:36.343Z,0
2023-01-17T01:07:36.344Z,0
2023-01-17T01:08:36.327Z,0
2023-01-17T01:09:36.327Z,0
2023-01-17T01:10:36.301Z,0
2023-01-17T01:11:36.291Z,0
2023-01-17T01:12:36.278Z,0
2023-01-17T01:13:36.275Z,0
2023-01-17T01:14:36.258Z,0
2023-01-17T01:15:36.248Z,0
2023-01-17T01:16:36.238Z,0
2023-01-17T01:17:36.239Z,0
2023-01-17T01:18:36.217Z,0
2023-01-17T01:19:36.222Z,0
2023-01-17T01:20:36.191Z,0
2023-01-17T01:21:36.190Z,0
2023-01-17T01:22:36.176Z,0
2023-01-17T01:23:36.163Z,0
2023-01-17T01:24:36.151Z,0
2023-01-17T01:25:36.154Z,0
2023-01-17T01:26:36.134Z,0
2023-01-17T01:27:36.122Z,0
2023-01-17T01:28:36.115Z,0
2023-01-17T01:29:36.102Z,0
2023-01-17T01:30:36.093Z,0
2023-01-17T01:31:36.102Z,0
2023-01-17T01:32:36.067Z,0
2023-01-17T01:33:36.062Z,0
2023-01-17T01:34:36.051Z,0
2023-01-17T01:35:36.035Z,0
2023-01-17T01:36:36.031Z,0
2023-01-17T01:37:36.030Z,0
2023-01-17T01:38:36.009Z,0
2023-01-17T01:39:35.999Z,0
2023-01-17T01:40:35.989Z,0
2023-01-17T01:41:35.980Z,0
2023-01-17T01:42:35.969Z,0
2023-01-17T01:43:35.954Z,0
2023-01-17T01:44:35.950Z,0
2023-01-17T01:45:35.928Z,0
2023-01-17T01:46:35.925Z,0
2023-01-17T01:47:35.911Z,0
2023-01-17T01:48:35.899Z,0
2023-01-17T01:49:35.896Z,0
2023-01-17T01:50:35.883Z,0
2023-01-17T01:51:35.867Z,0
2023-01-17T01:52:35.866Z,0
2023-01-17T01:53:35.842Z,0
2023-01-17T01:54:35.833Z,0
2023-01-17T01:55:35.828Z,0
2023-01-17T01:56:35.830Z,0
2023-01-17T01:57:35.802Z,0
2023-01-17T01:58:35.794Z,0
2023-01-17T01:59:35.782Z,0
2023-01-17T02:00:35.775Z,0
2023-01-17T02:01:35.759Z,0
2023-01-17T02:02:35.773Z,0
2023-01-17T02:03:35.739Z,0
2023-01-17T02:04:35.728Z,0
2023-01-17T02:05:35.722Z,0
2023-01-17T02:06:35.708Z,0
2023-01-17T02:07:35.694Z,0
2023-01-17T02:08:35.706Z,0
2023-01-17T02:09:35.682Z,0
2023-01-17T02:10:35.669Z,0
2023-01-17T02:11:35.662Z,0
2023-01-17T02:12:35.655Z,0
2023-01-17T02:13:35.634Z,0
2023-01-17T02:14:35.685Z,0
2023-01-17T02:15:35.616Z,0
2023-01-17T02:16:35.607Z,0
2023-01-17T02:17:35.595Z,0
2023-01-17T02:18:35.584Z,0
2023-01-17T02:19:35.606Z,0
2023-01-17T02:20:35.576Z,0
2023-01-17T02:21:35.556Z,0
2023-01-17T02:22:35.544Z,0
2023-01-17T02:23:35.537Z,0
2023-01-17T02:24:35.528Z,0
2023-01-17T02:25:35.507Z,0
2023-01-17T02:26:35.510Z,0
2023-01-17T02:27:35.487Z,0
2023-01-17T02:28:35.482Z,0
2023-01-17T02:29:43.175Z,0
2023-01-17T02:30:43.106Z,0
2023-01-17T02:31:35.482Z,0
2023-01-17T02:32:35.435Z,0
2023-01-17T02:33:35.453Z,0
2023-01-17T02:34:35.440Z,0
2023-01-17T02:35:35.425Z,0
2023-01-17T02:36:35.416Z,0
2023-01-17T02:41:28.572Z,0
2023-01-17T02:42:28.537Z,0
2023-01-17T02:43:36.172Z,0
2023-01-17T02:44:28.514Z,0
2023-01-17T02:45:28.499Z,0
2023-01-17T02:46:36.169Z,0
2023-01-17T02:47:36.201Z,0
2023-01-17T02:48:28.474Z,0
2023-01-17T02:49:28.457Z,0
2023-01-17T02:50:36.207Z,0
2023-01-17T02:51:36.112Z,0
2023-01-17T02:52:28.443Z,0
2023-01-17T02:53:36.004Z,0
2023-01-17T02:54:28.418Z,0
2023-01-17T02:55:36.094Z,0
2023-01-17T02:56:28.399Z,0
2023-01-17T02:57:36.098Z,0
2023-01-17T02:58:28.363Z,0
2023-01-17T02:59:36.048Z,0
2023-01-17T03:00:35.998Z,0
2023-01-17T03:01:36.008Z,0
2023-01-17T03:02:28.342Z,0
2023-01-17T03:03:28.307Z,0
2023-01-17T03:04:28.360Z,0
2023-01-17T03:05:28.294Z,0
2023-01-17T03:06:35.940Z,0
2023-01-17T03:07:28.290Z,0
2023-01-17T03:08:28.281Z,0
2023-01-17T03:09:28.251Z,0
2023-01-17T03:10:28.236Z,0
2023-01-17T03:11:28.236Z,0
2023-01-17T03:12:28.223Z,0
2023-01-17T03:13:28.207Z,0
2023-01-17T03:14:28.188Z,0
2023-01-17T03:15:28.181Z,0
2023-01-17T03:16:28.165Z,0
2023-01-17T03:17:28.163Z,0
2023-01-17T03:18:28.149Z,0
2023-01-17T03:19:28.146Z,0
2023-01-17T03:20:28.125Z,0
2023-01-17T03:21:28.117Z,0
2023-01-17T03:22:28.108Z,0
2023-01-17T03:23:28.107Z,0
2023-01-17T03:24:28.090Z,0
2023-01-17T03:25:28.117Z,0
2023-01-17T03:26:28.081Z,0
2023-01-17T03:27:28.071Z,0
2023-01-17T03:28:28.069Z,0
2023-01-17T03:29:28.035Z,0
2023-01-17T03:30:28.021Z,0
2023-01-17T03:31:28.017Z,0
2023-01-17T03:32:28.002Z,0
2023-01-17T03:33:28.025Z,0
2023-01-17T03:34:28.070Z,0
2023-01-17T03:35:27.996Z,0
2023-01-17T03:36:27.987Z,0
2023-01-17T03:37:27.983Z,0
2023-01-17T03:38:27.976Z,0
2023-01-17T03:39:27.937Z,0
2023-01-17T03:40:27.939Z,0
2023-01-17T03:41:27.916Z,0
2023-01-17T03:42:27.892Z,0
2023-01-17T03:43:27.901Z,0
2023-01-17T03:44:27.865Z,0
2023-01-17T03:45:27.864Z,0
2023-01-17T03:46:27.852Z,0
2023-01-17T03:47:27.836Z,0
2023-01-17T03:48:27.849Z,0
2023-01-17T03:49:27.812Z,0
2023-01-17T03:50:27.805Z,0
2023-01-17T03:51:27.794Z,0
2023-01-17T03:52:27.783Z,0
2023-01-17T03:53:27.789Z,0
2023-01-17T03:54:27.777Z,0
2023-01-17T03:55:27.774Z,0
2023-01-17T03:56:27.743Z,0
2023-01-17T03:57:27.740Z,0
2023-01-17T03:58:27.721Z,0
2023-01-17T03:59:27.711Z,0
2023-01-17T04:00:27.702Z,0
2023-01-17T04:01:27.702Z,0
2023-01-17T04:02:27.678Z,0
2023-01-17T04:03:27.671Z,0
2023-01-17T04:04:27.667Z,0
2023-01-17T04:05:27.642Z,0
2023-01-17T04:06:27.639Z,0
2023-01-17T04:07:27.651Z,0
2023-01-17T04:08:27.628Z,0
2023-01-17T04:09:27.603Z,0
2023-01-17T04:10:27.616Z,0
2023-01-17T04:11:27.593Z,0
2023-01-17T04:12:27.576Z,0
2023-01-17T04:13:27.581Z,0
2023-01-17T04:14:27.559Z,0
2023-01-17T04:15:27.566Z,0
2023-01-17T04:16:27.529Z,0
2023-01-17T04:17:27.582Z,0
2023-01-17T04:18:27.541Z,0
2023-01-17T04:19:27.518Z,0
2023-01-17T04:20:27.498Z,0
2023-01-17T04:21:27.494Z,0
2023-01-17T04:22:27.465Z,0
2023-01-17T04:23:27.472Z,0
2023-01-17T04:24:27.472Z,0
2023-01-17T04:25:27.435Z,0
2023-01-17T04:26:27.431Z,0
2023-01-17T04:27:27.414Z,0
2023-01-17T04:28:27.431Z,0
2023-01-17T04:29:27.397Z,0
2023-01-17T04:30:27.417Z,0
2023-01-17T04:31:27.406Z,0
2023-01-17T04:32:27.368Z,0
2023-01-17T04:33:27.362Z,0
2023-01-17T04:34:27.348Z,0
2023-01-17T04:35:27.343Z,0
2023-01-17T04:36:27.322Z,0
2023-01-17T04:37:27.331Z,0
2023-01-17T04:38:27.297Z,0
2023-01-17T04:39:27.303Z,0
2023-01-17T04:40:27.287Z,0
2023-01-17T04:41:27.290Z,0
2023-01-17T04:42:27.262Z,0
2023-01-17T04:43:27.311Z,0
2023-01-17T04:44:27.249Z,0
2023-01-17T04:45:27.244Z,0
2023-01-17T04:46:27.225Z,0
2023-01-17T04:47:27.207Z,0
2023-01-17T04:48:27.206Z,0
2023-01-17T04:49:27.211Z,0
2023-01-17T04:50:27.173Z,0
2023-01-17T04:51:27.182Z,0
2023-01-17T04:52:27.166Z,0
2023-01-17T04:53:27.142Z,0
2023-01-17T04:54:27.146Z,0
2023-01-17T04:55:27.151Z,0
2023-01-17T04:56:27.123Z,0
2023-01-17T04:57:27.104Z,0
2023-01-17T04:58:27.093Z,0
2023-01-17T04:59:27.086Z,0
2023-01-17T05:00:27.073Z,0
2023-01-17T05:01:27.066Z,0
2023-01-17T05:02:27.057Z,0
2023-01-17T05:03:27.040Z,0
2023-01-17T05:04:27.030Z,0
2023-01-17T05:05:27.024Z,0
2023-01-17T05:06:27.017Z,0
2023-01-17T05:07:27.005Z,0
2023-01-17T05:08:27.002Z,0
2023-01-17T05:09:27.004Z,0
2023-01-17T05:10:26.973Z,0
2023-01-17T05:11:26.959Z,0
2023-01-17T05:12:26.948Z,0
2023-01-17T05:13:26.951Z,0
2023-01-17T05:14:26.931Z,0
2023-01-17T05:15:26.916Z,0
2023-01-17T05:16:26.910Z,0
2023-01-17T05:17:26.906Z,0
2023-01-17T05:18:26.885Z,0
2023-01-17T05:19:26.879Z,0
2023-01-17T05:20:26.871Z,0
2023-01-17T05:21:26.858Z,0
2023-01-17T05:22:26.849Z,0
2023-01-17T05:23:26.836Z,0
2023-01-17T05:24:26.831Z,0
2023-01-17T05:25:26.810Z,0
2023-01-17T05:26:26.806Z,0
2023-01-17T05:27:26.792Z,0
2023-01-17T05:28:26.783Z,0
2023-01-17T05:29:26.792Z,0
2023-01-17T05:30:26.772Z,0
2023-01-17T05:31:26.751Z,0
2023-01-17T05:32:26.742Z,0
2023-01-17T05:33:26.727Z,0
2023-01-17T05:34:26.718Z,0
2023-01-17T05:35:26.709Z,0
2023-01-17T05:36:26.699Z,0
2023-01-17T05:37:26.687Z,0
2023-01-17T05:38:26.677Z,0
2023-01-17T05:39:26.662Z,0
2023-01-17T05:40:26.661Z,0
2023-01-17T05:41:26.659Z,0
2023-01-17T05:42:26.651Z,0
2023-01-17T05:43:26.633Z,0
2023-01-17T05:44:26.611Z,0
2023-01-17T05:45:26.603Z,0
2023-01-17T05:46:26.592Z,0
2023-01-17T05:47:26.578Z,0
2023-01-17T05:48:26.599Z,0
2023-01-17T05:49:26.559Z,0
2023-01-17T05:50:26.560Z,0
2023-01-17T05:51:26.542Z,0
2023-01-17T05:52:26.532Z,0
2023-01-17T05:53:26.530Z,0
2023-01-17T05:54:26.517Z,0
2023-01-17T05:55:26.497Z,0
2023-01-17T05:56:26.503Z,0
2023-01-17T05:57:26.478Z,0
2023-01-17T05:58:26.466Z,0
2023-01-17T05:59:26.454Z,0
2023-01-17T06:00:26.447Z,0
2023-01-17T06:01:26.470Z,0
2023-01-17T06:02:26.453Z,0
2023-01-17T06:03:26.411Z,0
2023-01-17T06:04:26.407Z,0
2023-01-17T06:05:26.390Z,0
2023-01-17T06:06:26.459Z,0
2023-01-17T06:07:26.379Z,0
2023-01-17T06:08:26.365Z,0
2023-01-17T06:09:26.351Z,0
2023-01-17T06:10:33.928Z,0
2023-01-17T06:11:26.339Z,0
2023-01-17T06:12:26.321Z,0
2023-01-17T06:13:26.326Z,0
2023-01-17T06:14:26.295Z,0
2023-01-17T06:15:26.284Z,0
2023-01-17T06:16:26.272Z,0
2023-01-17T06:17:26.282Z,0
2023-01-17T06:18:26.266Z,0
2023-01-17T06:19:26.267Z,0
2023-01-17T06:20:26.242Z,0
2023-01-17T06:21:26.230Z,0
2023-01-17T06:22:26.289Z,0
2023-01-17T06:23:26.227Z,0
2023-01-17T06:24:26.220Z,0
2023-01-17T06:25:26.200Z,0
2023-01-17T06:26:26.187Z,0
2023-01-17T06:27:26.158Z,0
2023-01-17T06:28:26.149Z,0
2023-01-17T06:29:26.147Z,0
2023-01-17T06:30:26.146Z,0
2023-01-17T06:31:26.153Z,0
2023-01-17T06:32:26.113Z,0
2023-01-17T06:33:26.094Z,0
2023-01-17T06:34:26.082Z,0
2023-01-17T06:35:26.075Z,0
2023-01-17T06:36:26.067Z,0
2023-01-17T06:37:26.051Z,0
2023-01-17T06:38:26.048Z,0
2023-01-17T06:39:26.208Z,0
2023-01-17T06:40:26.020Z,0
2023-01-17T06:41:26.013Z,0
2023-01-17T06:42:26.011Z,0
2023-01-17T06:43:26.153Z,0
2023-01-17T06:44:26.004Z,0
2023-01-17T06:45:25.974Z,0
2023-01-17T06:46:25.958Z,0
2023-01-17T06:47:25.955Z,0
2023-01-17T06:48:25.947Z,0
2023-01-17T06:49:25.944Z,0
2023-01-17T06:50:25.935Z,0
2023-01-17T06:51:25.908Z,0
2023-01-17T06:52:25.891Z,0
2023-01-17T06:53:25.888Z,0
2023-01-17T06:54:25.879Z,0
2023-01-17T06:55:25.895Z,0
2023-01-17T06:56:25.850Z,0
2023-01-17T06:57:25.841Z,0
2023-01-17T06:58:25.843Z,0
2023-01-17T06:59:25.818Z,0
2023-01-17T07:00:25.813Z,0
2023-01-17T07:01:25.809Z,0
2023-01-17T07:02:25.816Z,0
2023-01-17T07:03:25.778Z,0
2023-01-17T07:04:25.770Z,0
2023-01-17T07:05:25.765Z,0
2023-01-17T07:06:25.743Z,0
2023-01-17T07:07:25.747Z,0
2023-01-17T07:08:25.723Z,0
2023-01-17T07:09:25.728Z,0
2023-01-17T07:10:25.720Z,0
2023-01-17T07:11:25.690Z,0
2023-01-17T07:12:25.681Z,0
2023-01-17T07:13:25.670Z,0
2023-01-17T07:14:25.659Z,0
2023-01-17T07:15:25.659Z,0
2023-01-17T07:16:25.639Z,0
2023-01-17T07:17:25.627Z,0
2023-01-17T07:18:25.619Z,0
2023-01-17T07:19:25.611Z,0
2023-01-17T07:20:25.597Z,0
2023-01-17T07:21:25.585Z,0
2023-01-17T07:22:25.579Z,0
2023-01-17T07:23:25.565Z,0
2023-01-17T07:24:25.557Z,0
2023-01-17T07:25:25.548Z,0
2023-01-17T07:26:25.533Z,0
2023-01-17T07:27:25.532Z,0
2023-01-17T07:28:25.511Z,0
2023-01-17T07:29:25.501Z,0
2023-01-17T07:30:25.491Z,0
2023-01-17T07:31:25.478Z,0
2023-01-17T07:32:25.479Z,0
2023-01-17T07:33:25.464Z,0
2023-01-17T07:34:25.450Z,0
2023-01-17T07:35:25.436Z,0
2023-01-17T07:36:25.431Z,0
2023-01-17T07:37:25.419Z,0
2023-01-17T07:38:25.404Z,0
2023-01-17T07:39:25.418Z,0
2023-01-17T07:40:25.385Z,0
2023-01-17T07:41:25.374Z,0
2023-01-17T07:42:25.369Z,0
2023-01-17T07:43:25.357Z,0
2023-01-17T07:44:25.346Z,5.62
2023-01-17T07:45:25.339Z,5.62
2023-01-17T07:46:25.328Z,5.62
2023-01-17T07:47:25.317Z,5.62
2023-01-17T07:48:25.301Z,5.62
2023-01-17T07:49:25.293Z,5.62
2023-01-17T07:50:25.286Z,11.25
2023-01-17T07:51:25.303Z,11.25
2023-01-17T07:52:25.257Z,11.25
2023-01-17T07:53:25.253Z,11.25
2023-01-17T07:54:25.234Z,11.25
2023-01-17T07:55:25.228Z,11.25
2023-01-17T07:56:25.216Z,11.25
2023-01-17T07:57:25.209Z,11.25
2023-01-17T07:58:25.209Z,11.25
2023-01-17T07:59:25.185Z,11.25
2023-01-17T08:00:25.186Z,11.25
2023-01-17T08:01:25.163Z,16.88
2023-01-17T08:02:25.152Z,11.25
2023-01-17T08:03:25.152Z,16.88
2023-01-17T08:04:25.130Z,16.88
2023-01-17T08:05:25.133Z,16.88
2023-01-17T08:06:25.112Z,16.88
2023-01-17T08:07:25.101Z,16.88
2023-01-17T08:08:25.090Z,16.88
2023-01-17T08:09:25.090Z,22.5
2023-01-17T08:10:25.067Z,22.5
2023-01-17T08:11:25.061Z,22.5
2023-01-17T08:12:25.050Z,22.5
2023-01-17T08:13:25.038Z,22.5
2023-01-17T08:14:25.024Z,22.5
2023-01-17T08:15:25.038Z,28.12
2023-01-17T08:16:25.007Z,28.12
2023-01-17T08:17:25.050Z,33.75
2023-01-17T08:18:24.985Z,33.75
2023-01-17T08:19:24.971Z,33.75
2023-01-17T08:20:24.960Z,39.38
2023-01-17T08:21:24.951Z,45
2023-01-17T08:22:24.948Z,45
2023-01-17T08:23:24.937Z,39.38
2023-01-17T08:24:24.920Z,39.38
2023-01-17T08:25:24.908Z,45
2023-01-17T08:26:24.897Z,50.62
2023-01-17T08:27:24.897Z,45
2023-01-17T08:28:24.890Z,45
2023-01-17T08:29:24.870Z,33.75
2023-01-17T08:30:24.860Z,33.75
2023-01-17T08:31:24.846Z,33.75
2023-01-17T08:32:24.840Z,33.75
2023-01-17T08:33:24.855Z,33.75
2023-01-17T08:34:24.830Z,33.75
2023-01-17T08:35:24.805Z,33.75
2023-01-17T08:36:24.796Z,33.75
2023-01-17T08:37:24.785Z,39.38
2023-01-17T08:38:24.771Z,39.38
2023-01-17T08:39:24.764Z,39.38
2023-01-17T08:40:24.763Z,39.38
2023-01-17T08:41:24.746Z,39.38
2023-01-17T08:42:24.749Z,39.38
2023-01-17T08:43:24.719Z,39.38
2023-01-17T08:44:24.714Z,39.38
2023-01-17T08:45:24.700Z,39.38
2023-01-17T08:46:24.696Z,39.38
2023-01-17T08:47:24.696Z,39.38
2023-01-17T08:48:24.668Z,39.38
2023-01-17T08:49:24.661Z,45
2023-01-17T08:50:24.646Z,45
2023-01-17T08:51:24.640Z,45
2023-01-17T08:52:24.633Z,45
2023-01-17T08:53:24.681Z,45
2023-01-17T08:54:24.608Z,45
2023-01-17T08:55:24.601Z,45
2023-01-17T08:56:24.585Z,45
2023-01-17T08:57:24.582Z,50.62
2023-01-17T08:58:24.571Z,50.62
2023-01-17T08:59:24.569Z,50.62
2023-01-17T09:00:24.542Z,50.62
2023-01-17T09:01:24.546Z,50.62
2023-01-17T09:02:24.523Z,50.62
2023-01-17T09:03:24.507Z,50.62
2023-01-17T09:04:24.503Z,50.62
2023-01-17T09:05:24.493Z,56.25
2023-01-17T09:06:24.514Z,56.25
2023-01-17T09:07:24.473Z,56.25
2023-01-17T09:08:24.458Z,56.25
2023-01-17T09:09:24.445Z,61.88
2023-01-17T09:10:24.436Z,61.88
2023-01-17T09:11:24.427Z,67.5
2023-01-17T09:12:24.414Z,73.12
2023-01-17T09:13:24.401Z,78.75
2023-01-17T09:14:24.411Z,78.75
2023-01-17T09:15:24.384Z,78.75
2023-01-17T09:16:24.383Z,90
2023-01-17T09:17:24.368Z,84.38
2023-01-17T09:18:24.350Z,78.75
2023-01-17T09:19:24.343Z,67.5
2023-01-17T09:20:24.372Z,73.12
2023-01-17T09:21:24.326Z,61.88
2023-01-17T09:22:24.322Z,67.5
2023-01-17T09:23:24.305Z,56.25
2023-01-17T09:24:24.291Z,61.88
2023-01-17T09:25:24.277Z,61.88
2023-01-17T09:26:24.271Z,61.88
2023-01-17T09:27:24.267Z,56.25
2023-01-17T09:28:24.265Z,67.5
2023-01-17T09:29:24.260Z,78.75
2023-01-17T09:30:24.227Z,67.5
2023-01-17T09:31:24.216Z,67.5
2023-01-17T09:32:24.205Z,73.12
2023-01-17T09:33:24.222Z,67.5
2023-01-17T09:34:24.203Z,67.5
2023-01-17T09:35:24.177Z,67.5
2023-01-17T09:36:24.168Z,73.12
2023-01-17T09:37:24.153Z,84.38
2023-01-17T09:38:24.149Z,95.62
2023-01-17T09:39:24.169Z,95.62
2023-01-17T09:40:24.123Z,101.25
2023-01-17T09:41:24.134Z,118.12
2023-01-17T09:42:24.106Z,112.5
2023-01-17T09:43:24.096Z,112.5
2023-01-17T09:44:24.082Z,118.12
2023-01-17T09:45:24.094Z,95.62
2023-01-17T09:46:24.072Z,73.12
2023-01-17T09:47:24.058Z,67.5
2023-01-17T09:48:24.050Z,73.12
2023-01-17T09:49:24.033Z,78.75
2023-01-17T09:50:24.023Z,73.12
2023-01-17T09:51:24.022Z,95.62
2023-01-17T09:52:24.006Z,90
2023-01-17T09:53:23.991Z,78.75
2023-01-17T09:54:23.988Z,67.5
2023-01-17T09:55:23.975Z,61.88
2023-01-17T09:56:23.962Z,67.5
2023-01-17T09:57:23.986Z,73.12
2023-01-17T09:58:23.945Z,73.12
2023-01-17T09:59:23.928Z,78.75
2023-01-17T10:00:23.937Z,61.88
2023-01-17T10:01:23.919Z,61.88
2023-01-17T10:02:23.899Z,50.62
2023-01-17T10:03:23.914Z,67.5
2023-01-17T10:04:23.884Z,56.25
2023-01-17T10:05:23.871Z,45
2023-01-17T10:06:23.857Z,45
2023-01-17T10:07:23.857Z,56.25
2023-01-17T10:08:23.839Z,61.88
2023-01-17T10:09:23.847Z,73.12
2023-01-17T10:10:23.821Z,73.12
2023-01-17T10:11:23.804Z,67.5
2023-01-17T10:12:23.799Z,56.25
2023-01-17T10:13:23.782Z,61.88
2023-01-17T10:14:23.773Z,56.25
2023-01-17T10:15:23.779Z,45
2023-01-17T10:16:23.760Z,50.62
2023-01-17T10:17:23.743Z,50.62
2023-01-17T10:18:23.737Z,50.62
2023-01-17T10:19:23.728Z,56.25
2023-01-17T10:20:23.713Z,73.12
2023-01-17T10:21:23.715Z,67.5
2023-01-17T10:22:23.699Z,61.88
2023-01-17T10:23:23.680Z,61.88
2023-01-17T10:24:23.674Z,61.88
2023-01-17T10:25:23.661Z,61.88
2023-01-17T10:26:23.654Z,84.38
2023-01-17T10:27:23.657Z,73.12
2023-01-17T10:28:23.631Z,67.5
2023-01-17T10:29:23.622Z,61.88
2023-01-17T10:30:23.609Z,61.88
2023-01-17T10:31:23.597Z,67.5
2023-01-17T10:32:23.592Z,67.5
2023-01-17T10:33:23.591Z,56.25
2023-01-17T10:34:23.569Z,56.25
2023-01-17T10:35:23.564Z,56.25
2023-01-17T10:36:23.556Z,73.12
2023-01-17T10:37:23.535Z,78.75
2023-01-17T10:38:23.526Z,84.38
2023-01-17T10:39:23.514Z,106.88
2023-01-17T10:40:23.506Z,78.75
2023-01-17T10:41:23.499Z,73.12
2023-01-17T10:42:23.503Z,84.38
2023-01-17T10:43:23.506Z,73.12
2023-01-17T10:44:23.468Z,78.75
2023-01-17T10:45:23.460Z,101.25
2023-01-17T10:46:23.455Z,129.38
2023-01-17T10:47:23.436Z,140.62
2023-01-17T10:48:23.429Z,106.88
2023-01-17T10:49:23.412Z,118.12
2023-01-17T10:50:23.407Z,101.25
2023-01-17T10:51:23.394Z,135
2023-01-17T10:52:23.388Z,135
2023-01-17T10:53:23.371Z,140.62
2023-01-17T10:54:23.367Z,163.12
2023-01-17T10:55:23.348Z,163.12
2023-01-17T10:56:23.352Z,140.62
2023-01-17T10:57:23.328Z,146.25
2023-01-17T10:58:23.318Z,118.12
2023-01-17T10:59:23.310Z,118.12
2023-01-17T11:00:23.300Z,123.75
2023-01-17T11:01:23.283Z,151.88
2023-01-17T11:02:23.283Z,180
2023-01-17T11:03:23.259Z,196.88
2023-01-17T11:04:23.257Z,168.75
2023-01-17T11:05:23.245Z,185.62
2023-01-17T11:06:23.228Z,140.62
2023-01-17T11:07:23.231Z,174.38
2023-01-17T11:08:23.204Z,174.38
2023-01-17T11:09:23.229Z,129.38
2023-01-17T11:10:23.187Z,123.75
2023-01-17T11:11:23.173Z,123.75
2023-01-17T11:12:23.171Z,129.38
2023-01-17T11:13:23.160Z,151.88
2023-01-17T11:14:23.142Z,163.12
2023-01-17T11:15:23.138Z,180
2023-01-17T11:16:23.121Z,140.62
2023-01-17T11:17:23.109Z,129.38
2023-01-17T11:18:23.100Z,90
2023-01-17T11:19:23.088Z,84.38
2023-01-17T11:20:23.080Z,84.38
2023-01-17T11:21:23.070Z,84.38
2023-01-17T11:22:23.056Z,73.12
2023-01-17T11:23:23.046Z,73.12
2023-01-17T11:24:23.036Z,67.5
2023-01-17T11:25:23.023Z,84.38
2023-01-17T11:26:23.032Z,106.88
2023-01-17T11:27:23.022Z,90
2023-01-17T11:28:22.995Z,78.75
2023-01-17T11:29:22.978Z,101.25
2023-01-17T11:30:23.055Z,129.38
2023-01-17T11:31:23.030Z,123.75
2023-01-17T11:32:22.953Z,146.25
2023-01-17T11:33:22.938Z,151.88
2023-01-17T11:34:23.826Z,163.12
2023-01-17T11:35:22.993Z,196.88
2023-01-17T11:36:22.905Z,208.12
2023-01-17T11:37:22.890Z,208.12
2023-01-17T11:38:22.884Z,157.5
2023-01-17T11:39:22.882Z,146.25
2023-01-17T11:40:22.866Z,180
2023-01-17T11:41:22.856Z,174.38
2023-01-17T11:42:22.842Z,180
2023-01-17T11:43:22.829Z,202.5
2023-01-17T11:44:22.826Z,213.75
2023-01-17T11:45:22.824Z,185.62
2023-01-17T11:46:22.800Z,230.62
2023-01-17T11:47:22.810Z,196.88
2023-01-17T11:48:22.782Z,208.12
2023-01-17T11:49:22.765Z,213.75
2023-01-17T11:50:22.771Z,253.12
2023-01-17T11:51:22.749Z,219.38
2023-01-17T11:52:22.758Z,202.5
2023-01-17T11:53:22.724Z,258.75
2023-01-17T11:54:22.717Z,253.12
2023-01-17T11:55:22.736Z,202.5
2023-01-17T11:56:22.740Z,140.62
2023-01-17T11:57:22.697Z,1130.62
2023-01-17T11:58:22.685Z,1113.75
2023-01-17T11:59:22.663Z,1265.62
2023-01-17T12:00:22.652Z,360
2023-01-17T12:01:22.752Z,1575
2023-01-17T12:02:22.631Z,1591.88
2023-01-17T12:03:22.617Z,157.5
2023-01-17T12:04:22.628Z,191.25
2023-01-17T12:05:22.603Z,135
2023-01-17T12:06:22.589Z,129.38
2023-01-17T12:07:22.577Z,135
2023-01-17T12:08:22.573Z,123.75
2023-01-17T12:09:22.553Z,118.12
2023-01-17T12:10:22.560Z,118.12
2023-01-17T12:11:22.535Z,112.5
2023-01-17T12:12:22.525Z,101.25
2023-01-17T12:13:22.514Z,95.62
2023-01-17T12:14:22.503Z,95.62
2023-01-17T12:15:22.492Z,781.88
2023-01-17T12:16:22.516Z,168.75
2023-01-17T12:17:22.475Z,168.75
2023-01-17T12:18:22.468Z,185.62
2023-01-17T12:19:22.465Z,196.88
2023-01-17T12:20:22.444Z,112.5
2023-01-17T12:21:22.438Z,1254.38
2023-01-17T12:22:22.422Z,1170
2023-01-17T12:23:22.410Z,585
2023-01-17T12:24:22.408Z,151.88
2023-01-17T12:25:22.398Z,129.38
2023-01-17T12:26:22.385Z,1366.88
2023-01-17T12:27:22.367Z,1417.5
2023-01-17T12:28:22.363Z,1473.75
2023-01-17T12:29:22.349Z,1496.25
2023-01-17T12:30:22.338Z,1580.62
2023-01-17T12:31:22.336Z,1580.62
2023-01-17T12:32:22.310Z,1546.88
2023-01-17T12:33:22.302Z,1434.38
2023-01-17T12:34:22.294Z,1355.62
2023-01-17T12:35:22.275Z,1288.12
2023-01-17T12:36:22.267Z,1344.38
2023-01-17T12:37:22.268Z,1445.62
2023-01-17T12:38:22.247Z,1563.75
2023-01-17T12:39:22.238Z,1451.25
2023-01-17T12:40:22.222Z,1366.88
2023-01-17T12:41:22.218Z,1080
2023-01-17T12:42:22.219Z,478.12
2023-01-17T12:43:22.196Z,151.88
2023-01-17T12:44:22.219Z,146.25
2023-01-17T12:45:22.172Z,140.62
2023-01-17T12:46:22.172Z,135
2023-01-17T12:47:22.150Z,135
2023-01-17T12:48:22.140Z,135
2023-01-17T12:49:22.182Z,123.75
2023-01-17T12:50:22.121Z,123.75
2023-01-17T12:51:22.152Z,123.75
2023-01-17T12:52:22.100Z,118.12
2023-01-17T12:53:22.081Z,118.12
2023-01-17T12:54:22.073Z,118.12
2023-01-17T12:55:22.827Z,90
2023-01-17T12:56:22.058Z,95.62
2023-01-17T12:57:22.042Z,106.88
2023-01-17T12:58:22.048Z,118.12
2023-01-17T12:59:22.024Z,118.12
2023-01-17T13:00:22.018Z,123.75
2023-01-17T13:01:21.996Z,129.38
2023-01-17T13:02:21.989Z,112.5
2023-01-17T13:03:21.975Z,112.5
2023-01-17T13:04:21.995Z,106.88
2023-01-17T13:05:21.952Z,101.25
2023-01-17T13:06:21.961Z,101.25
2023-01-17T13:07:21.938Z,101.25
2023-01-17T13:08:21.963Z,101.25
2023-01-17T13:09:21.918Z,95.62
2023-01-17T13:10:21.905Z,95.62
2023-01-17T13:11:21.919Z,95.62
2023-01-17T13:12:21.890Z,95.62
2023-01-17T13:13:21.869Z,101.25
2023-01-17T13:14:21.866Z,101.25
2023-01-17T13:15:21.848Z,95.62
2023-01-17T13:16:21.854Z,90
2023-01-17T13:17:21.826Z,90
2023-01-17T13:18:21.822Z,84.38
2023-01-17T13:19:21.816Z,78.75
2023-01-17T13:20:21.794Z,73.12
2023-01-17T13:21:21.788Z,78.75
2023-01-17T13:22:21.795Z,84.38
2023-01-17T13:23:21.772Z,84.38
2023-01-17T13:24:21.755Z,90
2023-01-17T13:25:21.743Z,95.62
2023-01-17T13:26:21.737Z,101.25
2023-01-17T13:27:21.720Z,95.62
2023-01-17T13:28:21.724Z,90
2023-01-17T13:29:21.702Z,90
2023-01-17T13:30:21.725Z,90
2023-01-17T13:31:21.680Z,90
2023-01-17T13:32:21.671Z,90
2023-01-17T13:33:21.718Z,106.88
2023-01-17T13:34:21.646Z,106.88
2023-01-17T13:35:21.650Z,101.25
2023-01-17T13:36:21.634Z,101.25
2023-01-17T13:37:21.626Z,101.25
2023-01-17T13:38:21.610Z,101.25
2023-01-17T13:39:21.597Z,101.25
2023-01-17T13:40:21.587Z,95.62
2023-01-17T13:41:21.574Z,95.62
2023-01-17T13:42:21.564Z,90
2023-01-17T13:43:21.595Z,90
2023-01-17T13:44:21.543Z,90
2023-01-17T13:45:21.535Z,95.62
2023-01-17T13:46:21.522Z,101.25
2023-01-17T13:47:21.514Z,101.25
2023-01-17T13:48:21.499Z,106.88
2023-01-17T13:49:21.534Z,112.5
2023-01-17T13:50:21.479Z,112.5
2023-01-17T13:51:21.465Z,118.12
2023-01-17T13:52:21.462Z,112.5
2023-01-17T13:53:21.455Z,112.5
2023-01-17T13:54:21.439Z,112.5
2023-01-17T13:55:21.440Z,106.88
2023-01-17T13:56:21.425Z,101.25